createdAt,value
2023-05-11T21:14:15.191Z,17.60
2023-05-11T21:15:15.011Z,17.50
2023-05-11T21:16:15.009Z,17.40
2023-05-11T21:17:15.188Z,15.80
2023-05-11T21:18:14.984Z,15.50
2023-05-11T21:19:14.967Z,14.30
2023-05-11T21:20:14.958Z,15.20
2023-05-11T21:21:14.953Z,14.00
2023-05-11T21:22:14.952Z,14.90
2023-05-11T21:23:14.926Z,12.20
2023-05-11T21:24:14.920Z,14.50
2023-05-11T21:25:14.932Z,14.40
2023-05-11T21:26:14.900Z,13.60
2023-05-11T21:27:14.896Z,13.40
2023-05-11T21:28:14.864Z,13.50
2023-05-11T21:29:14.861Z,12.20
2023-05-11T21:30:14.902Z,12.70
2023-05-11T21:31:14.861Z,12.30
2023-05-11T21:32:14.856Z,12.40
2023-05-11T21:33:14.889Z,11.30
2023-05-11T21:34:14.840Z,11.80
2023-05-11T21:35:14.793Z,11.50
2023-05-11T21:36:14.779Z,11.00
2023-05-11T21:37:14.773Z,10.30
2023-05-11T21:38:14.769Z,12.10
2023-05-11T21:39:14.752Z,11.90
2023-05-11T21:40:14.743Z,10.40
2023-05-11T21:41:14.721Z,12.60
2023-05-11T21:42:14.715Z,12.20
2023-05-11T21:43:14.698Z,12.90
2023-05-11T21:44:14.704Z,14.10
2023-05-11T21:45:14.703Z,14.50
2023-05-11T21:46:14.771Z,13.20
2023-05-11T21:47:14.662Z,13.50
2023-05-11T21:48:14.648Z,13.50
2023-05-11T21:49:14.636Z,13.30
2023-05-11T21:50:14.637Z,11.80
2023-05-11T21:51:14.610Z,13.40
2023-05-11T21:52:14.596Z,11.60
2023-05-11T21:53:14.589Z,12.90
2023-05-11T21:54:14.584Z,14.30
2023-05-11T21:55:14.566Z,14.00
2023-05-11T21:56:14.564Z,12.50
2023-05-11T21:57:14.555Z,13.60
2023-05-11T21:58:14.657Z,11.00
2023-05-11T21:59:14.523Z,12.10
2023-05-11T22:00:14.514Z,13.10
2023-05-11T22:01:14.501Z,14.30
2023-05-11T22:02:14.555Z,14.20
2023-05-11T22:03:14.556Z,13.80
2023-05-11T22:04:14.862Z,14.80
2023-05-11T22:05:14.456Z,14.10
2023-05-11T22:06:14.444Z,16.00
2023-05-11T22:07:14.444Z,15.70
2023-05-11T22:08:15.949Z,13.40
2023-05-11T22:09:14.409Z,12.50
2023-05-11T22:10:14.478Z,14.10
2023-05-11T22:11:14.646Z,15.80
2023-05-11T22:12:14.380Z,17.10
2023-05-11T22:13:14.367Z,14.60
2023-05-11T22:14:14.367Z,15.70
2023-05-11T22:15:14.348Z,16.30
2023-05-11T22:16:14.387Z,14.40
2023-05-11T22:17:14.321Z,14.60
2023-05-11T22:18:14.331Z,15.00
2023-05-11T22:19:14.298Z,16.90
2023-05-11T22:20:14.291Z,15.00
2023-05-11T22:21:14.282Z,16.30
2023-05-11T22:22:14.268Z,16.70
2023-05-11T22:23:15.718Z,16.20
2023-05-11T22:24:14.254Z,14.10
2023-05-11T22:25:14.231Z,14.20
2023-05-11T22:26:14.223Z,14.00
2023-05-11T22:27:14.216Z,15.30
2023-05-11T22:28:14.202Z,17.00
2023-05-11T22:29:14.184Z,16.60
2023-05-11T22:30:14.176Z,17.30
2023-05-11T22:31:14.213Z,15.20
2023-05-11T22:32:14.155Z,15.30
2023-05-11T22:33:14.146Z,14.90
2023-05-11T22:34:14.175Z,15.80
2023-05-11T22:35:14.230Z,18.00
2023-05-11T22:36:14.118Z,17.40
2023-05-11T22:37:14.097Z,17.70
2023-05-11T22:38:14.082Z,19.10
2023-05-11T22:39:14.082Z,16.60
2023-05-11T22:40:14.078Z,15.20
2023-05-11T22:41:14.050Z,18.10
2023-05-11T22:42:14.035Z,16.80
2023-05-11T22:43:14.028Z,15.80
2023-05-11T22:44:14.020Z,18.00
2023-05-11T22:45:14.000Z,17.80
2023-05-11T22:46:14.096Z,17.00
2023-05-11T22:47:13.981Z,17.90
2023-05-11T22:48:13.970Z,17.90
2023-05-11T22:49:13.961Z,16.30
2023-05-11T22:50:14.058Z,16.70
2023-05-11T22:51:13.933Z,17.10
2023-05-11T22:52:13.925Z,19.40
2023-05-11T22:53:13.911Z,20.10
2023-05-11T22:54:13.901Z,16.90
2023-05-11T22:55:13.884Z,15.90
2023-05-11T22:56:13.900Z,18.00
2023-05-11T22:57:13.889Z,18.90
2023-05-11T22:58:13.862Z,18.10
2023-05-11T22:59:13.864Z,14.80
2023-05-11T23:00:13.833Z,11.00
2023-05-11T23:01:13.871Z,12.80
2023-05-11T23:02:13.846Z,14.90
2023-05-11T23:03:13.956Z,14.30
2023-05-11T23:04:13.795Z,13.50
2023-05-11T23:05:13.792Z,13.90
2023-05-11T23:06:13.797Z,14.60
2023-05-11T23:07:13.754Z,14.40
2023-05-11T23:08:13.757Z,14.50
2023-05-11T23:09:13.731Z,14.30
2023-05-11T23:10:13.725Z,14.10
2023-05-11T23:11:13.712Z,13.40
2023-05-11T23:12:13.703Z,14.00
2023-05-11T23:13:13.690Z,14.70
2023-05-11T23:14:13.682Z,12.90
2023-05-11T23:15:13.674Z,12.80
2023-05-11T23:16:13.658Z,13.80
2023-05-11T23:17:13.705Z,13.20
2023-05-11T23:18:13.747Z,14.60
2023-05-11T23:19:13.686Z,15.00
2023-05-11T23:20:13.618Z,15.50
2023-05-11T23:21:13.615Z,15.50
2023-05-11T23:22:13.632Z,15.30
2023-05-11T23:23:13.585Z,13.70
2023-05-11T23:24:13.568Z,15.30
2023-05-11T23:25:13.570Z,15.40
2023-05-11T23:26:13.551Z,15.90
2023-05-11T23:27:13.552Z,15.90
2023-05-11T23:28:13.524Z,16.30
2023-05-11T23:29:13.557Z,15.70
2023-05-11T23:30:13.528Z,16.90
2023-05-11T23:31:13.573Z,16.20
2023-05-11T23:32:13.484Z,18.50
2023-05-11T23:33:13.486Z,16.30
2023-05-11T23:34:13.461Z,15.30
2023-05-11T23:35:13.449Z,16.20
2023-05-11T23:36:13.459Z,18.10
2023-05-11T23:37:13.428Z,16.10
2023-05-11T23:38:13.440Z,17.10
2023-05-11T23:39:13.418Z,16.00
2023-05-11T23:40:13.391Z,20.80
2023-05-11T23:41:13.391Z,17.60
2023-05-11T23:42:13.371Z,17.00
2023-05-11T23:43:13.378Z,17.10
2023-05-11T23:44:13.353Z,17.70
2023-05-11T23:45:13.436Z,19.60
2023-05-11T23:46:13.323Z,18.20
2023-05-11T23:47:13.383Z,19.80
2023-05-11T23:48:13.315Z,22.60
2023-05-11T23:49:13.294Z,17.40
2023-05-11T23:50:13.295Z,20.40
2023-05-11T23:51:13.269Z,17.80
2023-05-11T23:52:13.258Z,19.50
2023-05-11T23:53:13.289Z,21.80
2023-05-11T23:54:13.294Z,19.10
2023-05-11T23:55:13.246Z,20.80
2023-05-11T23:56:13.222Z,22.70
2023-05-11T23:57:13.198Z,24.90
2023-05-11T23:58:13.186Z,20.20
2023-05-11T23:59:13.176Z,22.20
